Date,TemperatureHighF,TemperatureAvgF,TemperatureLowF,DewpointHighF,DewpointAvgF,DewpointLowF,HumidityHigh,HumidityAvg,HumidityLow,PressureMaxIn,PressureMinIn,WindSpeedMaxMPH,WindSpeedAvgMPH,GustSpeedMaxMPH,PrecipitationSumIn
2013-1-1,32,23,15,29,16,4,89,72,57,28.97,28.85,3,0,8,0.00
2013-1-2,20,12,4,10,3,-3,89,66,48,29.09,28.94,0,0,3,0.00
2013-1-3,25,14,-2,18,5,-9,87,66,45,29.06,28.97,2,0,8,0.00
2013-1-4,29,23,19,17,9,6,77,53,33,29.09,28.97,4,0,13,0.00
2013-1-5,34,25,18,16,14,9,71,58,40,29.18,28.97,1,0,6,0.00
2013-1-6,32,30,26,29,22,16,89,70,53,29.09,28.82,1,0,5,0.00
2013-1-7,36,28,25,25,19,12,89,69,39,29.26,29.06,3,0,11,0.00
2013-1-8,45,29,23,23,15,4,90,58,21,29.18,29.06,2,0,7,0.00
2013-1-9,47,35,25,33,22,16,90,59,36,29.32,29.00,4,0,9,0.00
2013-1-10,41,32,26,34,20,12,90,64,35,29.44,29.09,0,0,4,0.00
2013-1-11,60,48,35,56,38,12,87,71,33,29.09,28.76,0,0,6,0.00
2013-1-12,64,56,50,59,50,43,88,80,60,28.94,28.79,3,0,7,0.00
2013-1-13,66,55,42,62,49,38,87,81,67,28.91,28.67,4,0,12,0.00
2013-1-14,41,27,22,38,20,11,88,73,55,29.26,28.91,3,0,8,0.00
2013-1-15,37,25,22,14,11,-100,65,54,28,29.23,28.94,0,0,4,0.00
2013-1-16,31,27,24,20,14,10,80,54,40,28.94,28.79,2,0,10,0.00
2013-1-17,32,28,21,22,15,5,72,53,40,29.09,28.85,4,0,9,0.00
2013-1-18,32,23,14,6,3,-4,61,38,24,29.32,28.97,5,1,11,0.00
2013-1-19,49,39,29,10,6,1,32,25,20,28.97,28.61,5,1,10,0.00
2013-1-20,43,25,14,16,0,-6,56,32,21,29.03,28.59,5,0,16,0.00
2013-1-21,18,12,4,1,-6,-13,50,39,29,28.97,28.82,2,0,9,0.00
2013-1-22,10,3,0,-9,-16,-22,42,36,29,29.09,28.88,1,0,9,0.00
2013-1-23,12,6,0,1,-13,-22,66,39,29,29.09,28.91,1,0,6,0.00
2013-1-24,21,10,0,8,-6,-17,87,48,26,29.35,28.88,4,0,12,0.00
2013-1-25,16,11,4,6,-3,-14,69,49,38,29.29,28.85,0,0,4,0.00
2013-1-26,24,18,12,16,6,-2,83,58,38,29.26,28.91,0,0,5,0.00
2013-1-27,29,17,1,10,1,-9,72,46,25,29.32,29.09,0,0,6,0.00
2013-1-28,57,46,25,53,42,8,88,84,45,29.09,28.85,3,0,9,0.37
2013-1-29,63,58,54,58,51,37,88,80,49,28.94,28.59,6,1,10,0.13
2013-1-30,59,53,34,54,41,27,83,65,40,28.59,28.14,7,2,15,0.00
2013-1-31,34,23,18,29,11,2,84,58,42,28.64,28.26,4,0,10,0.00